Time;durP1;ratioP1;P1;durP2;ratioP2;P2;SDS_P1;SDS_P2;PMS_P1;PMS_P2;Temp;Humidity;BMP_temperature;BMP_pressure;BME280_temperature;BME280_humidity;BME280_pressure;Samples;Min_cycle;Max_cycle;Signal;HPM_P1;HPM_P2
2023/06/16 00:01:39;;;;;;;0.50;0.50;;;;;;;;;;6244159;23;20242;-87
2023/06/16 00:04:08;;;;;;;0.40;0.40;;;;;;;;;;6243920;23;20273;-86
2023/06/16 00:06:37;;;;;;;1.00;1.00;;;;;;;;;;6244183;23;20187;-84
2023/06/16 00:09:05;;;;;;;0.30;0.30;;;;;;;;;;6244816;23;20178;-83
2023/06/16 00:11:35;;;;;;;0.47;0.47;;;;;;;;;;6244537;23;20197;-83
2023/06/16 00:14:03;;;;;;;0.30;0.30;;;;;;;;;;6243568;23;20169;-84
2023/06/16 00:16:32;;;;;;;1.17;1.17;;;;;;;;;;6244475;23;20179;-84
2023/06/16 00:19:01;;;;;;;2.07;1.73;;;;;;;;;;6244471;23;20184;-84
2023/06/16 00:21:37;;;;;;;3.17;0.77;;;;;;;;;;6243590;23;20192;-84
2023/06/16 00:24:07;;;;;;;2.23;1.87;;;;;;;;;;6244049;23;20179;-84
2023/06/16 00:26:37;;;;;;;1.00;1.00;;;;;;;;;;6243973;23;20191;-84
2023/06/16 00:29:07;;;;;;;0.67;0.67;;;;;;;;;;6244523;23;20186;-84
2023/06/16 00:31:36;;;;;;;0.60;0.60;;;;;;;;;;6243402;23;20226;-84
2023/06/16 00:34:04;;;;;;;0.63;0.63;;;;;;;;;;6244500;23;20179;-84
2023/06/16 00:36:34;;;;;;;0.60;0.60;;;;;;;;;;6243604;23;20176;-84
2023/06/16 00:39:02;;;;;;;0.50;0.50;;;;;;;;;;6243764;23;20200;-84
2023/06/16 00:41:31;;;;;;;0.63;0.63;;;;;;;;;;6245694;23;20206;-84
2023/06/16 00:44:02;;;;;;;1.23;1.23;;;;;;;;;;6246071;23;20185;-84
2023/06/16 00:46:33;;;;;;;1.07;1.07;;;;;;;;;;6245769;23;20179;-84
2023/06/16 00:49:02;;;;;;;0.70;0.70;;;;;;;;;;6245123;23;20172;-84
2023/06/16 00:51:31;;;;;;;0.50;0.50;;;;;;;;;;6246137;23;20207;-84
2023/06/16 00:54:00;;;;;;;1.13;1.13;;;;;;;;;;6246149;23;20173;-84
2023/06/16 00:56:28;;;;;;;1.63;1.53;;;;;;;;;;6245615;23;20176;-84
2023/06/16 00:58:58;;;;;;;1.90;1.53;;;;;;;;;;6245430;23;20187;-84
2023/06/16 01:01:28;;;;;;;0.50;0.50;;;;;;;;;;6246079;23;20175;-84
2023/06/16 01:03:57;;;;;;;0.77;0.77;;;;;;;;;;6245875;23;20182;-84
2023/06/16 01:06:33;;;;;;;1.00;1.00;;;;;;;;;;6245376;23;20170;-84
2023/06/16 01:09:05;;;;;;;1.73;1.63;;;;;;;;;;6245372;23;20169;-84
2023/06/16 01:11:38;;;;;;;0.70;0.70;;;;;;;;;;6246150;23;20206;-84
2023/06/16 01:14:12;;;;;;;1.90;1.33;;;;;;;;;;6245287;23;20177;-84
2023/06/16 01:16:43;;;;;;;1.33;1.27;;;;;;;;;;6245913;23;20179;-84
2023/06/16 01:19:17;;;;;;;1.27;1.23;;;;;;;;;;6245777;23;20176;-84
2023/06/16 01:21:52;;;;;;;3.57;0.90;;;;;;;;;;6245518;23;20213;-87
2023/06/16 01:24:24;;;;;;;2.77;2.43;;;;;;;;;;6245534;23;20229;-87
2023/06/16 01:26:58;;;;;;;1.87;1.80;;;;;;;;;;6245826;22;20180;-86
2023/06/16 01:29:27;;;;;;;0.73;0.73;;;;;;;;;;6245494;23;20177;-86
2023/06/16 01:31:57;;;;;;;2.03;1.90;;;;;;;;;;6245189;23;20230;-86
2023/06/16 01:34:25;;;;;;;0.97;0.97;;;;;;;;;;6246069;23;20173;-87
2023/06/16 01:36:54;;;;;;;2.10;2.00;;;;;;;;;;6245739;23;20172;-86
2023/06/16 01:39:24;;;;;;;0.40;0.40;;;;;;;;;;6245284;23;20183;-86
2023/06/16 01:41:53;;;;;;;1.40;1.30;;;;;;;;;;6245223;23;20212;-87
2023/06/16 01:44:25;;;;;;;0.60;0.60;;;;;;;;;;6245594;23;20178;-86
2023/06/16 01:46:54;;;;;;;0.93;0.93;;;;;;;;;;6245115;23;20177;-83
2023/06/16 01:49:23;;;;;;;1.10;1.10;;;;;;;;;;6244881;23;20170;-84
2023/06/16 01:51:51;;;;;;;0.47;0.47;;;;;;;;;;6245213;23;20232;-84
2023/06/16 01:54:20;;;;;;;0.57;0.57;;;;;;;;;;6245492;23;20246;-84
2023/06/16 01:56:50;;;;;;;0.60;0.60;;;;;;;;;;6244964;23;20190;-84
2023/06/16 01:59:18;;;;;;;1.77;1.57;;;;;;;;;;6245328;23;20252;-84
2023/06/16 02:01:50;;;;;;;0.57;0.57;;;;;;;;;;6244735;23;20173;-84
2023/06/16 02:04:19;;;;;;;0.90;0.90;;;;;;;;;;6245363;23;20191;-84
2023/06/16 02:06:50;;;;;;;14.70;1.80;;;;;;;;;;6244895;23;20178;-84
2023/06/16 02:09:22;;;;;;;0.70;0.70;;;;;;;;;;6245455;23;20205;-84
2023/06/16 02:11:52;;;;;;;0.40;0.40;;;;;;;;;;6245521;23;20184;-84
2023/06/16 02:14:25;;;;;;;14.20;2.20;;;;;;;;;;6244906;23;20225;-84
2023/06/16 02:16:56;;;;;;;0.40;0.40;;;;;;;;;;6245268;23;20260;-84
2023/06/16 02:19:25;;;;;;;1.50;1.27;;;;;;;;;;6244846;23;20173;-84
2023/06/16 02:21:57;;;;;;;1.03;0.80;;;;;;;;;;6244469;23;20256;-84
2023/06/16 02:24:25;;;;;;;0.50;0.50;;;;;;;;;;6244870;23;20181;-86
2023/06/16 02:26:55;;;;;;;0.80;0.80;;;;;;;;;;6245252;22;20237;-86
2023/06/16 02:29:27;;;;;;;0.40;0.40;;;;;;;;;;6245205;23;20173;-86
2023/06/16 02:31:55;;;;;;;1.03;1.03;;;;;;;;;;6243996;23;20228;-86
2023/06/16 02:34:24;;;;;;;0.60;0.60;;;;;;;;;;6245488;23;20197;-86
2023/06/16 02:36:52;;;;;;;0.53;0.53;;;;;;;;;;6244687;23;20171;-86
2023/06/16 02:39:21;;;;;;;0.97;0.97;;;;;;;;;;6244346;23;20196;-86
2023/06/16 02:41:50;;;;;;;0.77;0.77;;;;;;;;;;6244733;23;20203;-84
2023/06/16 02:44:21;;;;;;;1.73;1.63;;;;;;;;;;6245420;23;20193;-84
2023/06/16 02:46:49;;;;;;;2.17;2.00;;;;;;;;;;6244947;23;20192;-84
2023/06/16 02:49:19;;;;;;;2.43;1.57;;;;;;;;;;6244533;23;20205;-84
2023/06/16 02:51:50;;;;;;;1.73;1.63;;;;;;;;;;6244812;23;20182;-84
2023/06/16 02:54:18;;;;;;;1.30;1.20;;;;;;;;;;6244983;23;20203;-84
2023/06/16 02:56:47;;;;;;;2.53;2.33;;;;;;;;;;6244312;23;20175;-84
2023/06/16 02:59:15;;;;;;;0.53;0.53;;;;;;;;;;6244775;23;20197;-84
2023/06/16 03:01:45;;;;;;;0.90;0.90;;;;;;;;;;6245042;23;20178;-84
2023/06/16 03:04:14;;;;;;;0.80;0.80;;;;;;;;;;6245051;23;20169;-84
2023/06/16 03:06:44;;;;;;;1.47;1.43;;;;;;;;;;6244800;23;20185;-83
2023/06/16 03:09:13;;;;;;;1.30;1.20;;;;;;;;;;6244398;23;20177;-84
2023/06/16 03:11:42;;;;;;;3.30;3.10;;;;;;;;;;6244701;23;20221;-83
2023/06/16 03:14:11;;;;;;;2.27;2.10;;;;;;;;;;6244319;23;20195;-84
2023/06/16 03:16:40;;;;;;;3.10;2.90;;;;;;;;;;6244592;23;20174;-84
2023/06/16 03:19:11;;;;;;;1.50;1.27;;;;;;;;;;6244715;23;20180;-84
2023/06/16 03:21:40;;;;;;;1.00;1.00;;;;;;;;;;6244730;23;20255;-84
2023/06/16 03:24:08;;;;;;;2.33;2.13;;;;;;;;;;6243756;23;20222;-84
2023/06/16 03:26:37;;;;;;;6.87;1.77;;;;;;;;;;6244535;23;20178;-84
2023/06/16 03:29:05;;;;;;;3.63;3.03;;;;;;;;;;6244163;23;20171;-86
2023/06/16 03:31:34;;;;;;;3.83;3.40;;;;;;;;;;6243931;23;20193;-86
2023/06/16 03:34:02;;;;;;;7.60;3.53;;;;;;;;;;6243770;23;20192;-86
2023/06/16 03:36:48;;;;;;;1.83;1.77;;;;;;;;;;6244544;23;20181;-86
2023/06/16 03:39:17;;;;;;;2.03;1.93;;;;;;;;;;6244133;23;20178;-86
2023/06/16 03:41:45;;;;;;;1.80;1.70;;;;;;;;;;6243493;23;20209;-86
2023/06/16 03:44:14;;;;;;;4.23;2.50;;;;;;;;;;6244392;23;20171;-86
2023/06/16 03:46:42;;;;;;;1.47;1.37;;;;;;;;;;6244388;23;20181;-86
2023/06/16 03:49:11;;;;;;;1.20;1.20;;;;;;;;;;6244238;23;20179;-86
2023/06/16 03:51:40;;;;;;;3.13;2.83;;;;;;;;;;6244507;23;20181;-86
2023/06/16 03:54:12;;;;;;;2.77;2.57;;;;;;;;;;6244415;23;20193;-86
2023/06/16 03:56:40;;;;;;;5.27;3.07;;;;;;;;;;6244168;23;20179;-86
2023/06/16 03:59:09;;;;;;;1.50;1.40;;;;;;;;;;6244027;23;20268;-86
2023/06/16 04:01:38;;;;;;;1.57;1.50;;;;;;;;;;6244374;23;20205;-86
2023/06/16 04:04:07;;;;;;;2.10;2.00;;;;;;;;;;6244367;23;20177;-84
2023/06/16 04:06:36;;;;;;;1.70;1.33;;;;;;;;;;6244123;23;20180;-84
2023/06/16 04:09:04;;;;;;;0.60;0.60;;;;;;;;;;6244211;23;20182;-83
2023/06/16 04:11:36;;;;;;;3.50;2.30;;;;;;;;;;6244256;23;20181;-84
2023/06/16 04:14:05;;;;;;;2.40;2.20;;;;;;;;;;6244271;23;20201;-84
2023/06/16 04:16:33;;;;;;;2.53;2.33;;;;;;;;;;6243968;23;20174;-86
2023/06/16 04:19:06;;;;;;;3.13;2.93;;;;;;;;;;6244108;23;20277;-86
2023/06/16 04:21:36;;;;;;;2.30;2.20;;;;;;;;;;6244852;23;20177;-86
2023/06/16 04:24:06;;;;;;;2.33;2.23;;;;;;;;;;6243510;23;20174;-86
2023/06/16 04:26:37;;;;;;;3.17;1.90;;;;;;;;;;6244255;23;20174;-86
2023/06/16 04:29:08;;;;;;;2.40;2.30;;;;;;;;;;6243871;23;20182;-86
2023/06/16 04:31:37;;;;;;;2.20;2.00;;;;;;;;;;6244591;23;20177;-86
2023/06/16 04:34:05;;;;;;;1.40;1.37;;;;;;;;;;6243830;23;20255;-86
2023/06/16 04:36:34;;;;;;;2.27;1.87;;;;;;;;;;6244085;23;20227;-86
2023/06/16 04:39:03;;;;;;;1.80;1.70;;;;;;;;;;6244348;23;20184;-86
2023/06/16 04:41:34;;;;;;;1.33;1.33;;;;;;;;;;6243549;23;20267;-86
2023/06/16 04:44:05;;;;;;;1.57;1.47;;;;;;;;;;6244046;23;20169;-86
2023/06/16 04:46:37;;;;;;;0.60;0.60;;;;;;;;;;6244210;23;20170;-87
2023/06/16 04:49:05;;;;;;;1.73;1.70;;;;;;;;;;6243483;23;20175;-85
2023/06/16 04:51:34;;;;;;;1.07;1.07;;;;;;;;;;6243681;23;20179;-84
2023/06/16 04:54:02;;;;;;;1.43;1.33;;;;;;;;;;6243991;23;20229;-84
2023/06/16 04:56:31;;;;;;;1.40;1.30;;;;;;;;;;6243490;23;20260;-84
2023/06/16 04:58:59;;;;;;;0.90;0.90;;;;;;;;;;6242777;23;20176;-86
2023/06/16 05:01:29;;;;;;;0.40;0.40;;;;;;;;;;6244108;23;20181;-86
2023/06/16 05:03:57;;;;;;;0.90;0.90;;;;;;;;;;6244029;23;20165;-87
2023/06/16 05:06:26;;;;;;;2.63;2.43;;;;;;;;;;6243338;23;20166;-87
2023/06/16 05:08:55;;;;;;;0.93;0.93;;;;;;;;;;6243760;23;20240;-86
2023/06/16 05:11:23;;;;;;;0.60;0.60;;;;;;;;;;6243625;23;20185;-88
2023/06/16 05:13:52;;;;;;;0.67;0.67;;;;;;;;;;6243923;23;20182;-87
2023/06/16 05:16:20;;;;;;;2.70;2.50;;;;;;;;;;6243681;23;20186;-87
2023/06/16 05:18:50;;;;;;;2.07;1.93;;;;;;;;;;6244081;23;20180;-87
2023/06/16 05:21:24;;;;;;;2.53;2.33;;;;;;;;;;6244578;23;20242;-87
2023/06/16 05:23:53;;;;;;;3.03;2.50;;;;;;;;;;6243432;23;20174;-87
2023/06/16 05:26:22;;;;;;;2.27;2.13;;;;;;;;;;6245565;23;20178;-86
2023/06/16 05:28:51;;;;;;;0.60;0.60;;;;;;;;;;6245539;22;20212;-87
2023/06/16 05:31:19;;;;;;;7.70;2.40;;;;;;;;;;6245896;23;20233;-87
2023/06/16 05:33:48;;;;;;;2.23;2.03;;;;;;;;;;6245628;23;20231;-87
2023/06/16 05:36:18;;;;;;;0.40;0.40;;;;;;;;;;6245806;23;20270;-87
2023/06/16 05:38:50;;;;;;;0.40;0.40;;;;;;;;;;6245930;23;20206;-87
2023/06/16 05:41:23;;;;;;;4.13;2.40;;;;;;;;;;6245188;23;20211;-87
2023/06/16 05:43:52;;;;;;;0.40;0.40;;;;;;;;;;6245842;23;20274;-87
2023/06/16 05:46:24;;;;;;;1.00;0.97;;;;;;;;;;6245419;23;20193;-87
2023/06/16 05:48:54;;;;;;;0.67;0.67;;;;;;;;;;6245246;23;20203;-87
2023/06/16 05:51:24;;;;;;;0.60;0.60;;;;;;;;;;6245126;23;20181;-88
2023/06/16 05:53:53;;;;;;;0.70;0.70;;;;;;;;;;6246076;23;20180;-84
2023/06/16 05:56:23;;;;;;;1.83;1.17;;;;;;;;;;6246091;23;20211;-84
2023/06/16 05:58:52;;;;;;;1.93;1.83;;;;;;;;;;6244843;23;20192;-83
2023/06/16 06:01:22;;;;;;;1.27;1.17;;;;;;;;;;6245439;23;20239;-86
2023/06/16 06:03:51;;;;;;;4.17;1.27;;;;;;;;;;6245383;23;20184;-85
2023/06/16 06:06:19;;;;;;;2.63;1.53;;;;;;;;;;6245178;23;20170;-86
2023/06/16 06:08:50;;;;;;;0.60;0.60;;;;;;;;;;6244939;23;20176;-85
2023/06/16 06:11:18;;;;;;;1.73;1.17;;;;;;;;;;6245005;23;20185;-81
2023/06/16 06:13:49;;;;;;;0.80;0.80;;;;;;;;;;6245196;23;20228;-86
2023/06/16 06:16:18;;;;;;;2.20;2.00;;;;;;;;;;6244851;23;20195;-85
2023/06/16 06:18:47;;;;;;;1.53;1.43;;;;;;;;;;6245275;23;20175;-85
2023/06/16 06:21:16;;;;;;;2.17;2.07;;;;;;;;;;6244532;23;20186;-85
2023/06/16 06:23:45;;;;;;;0.50;0.50;;;;;;;;;;6245806;23;20182;-84
2023/06/16 06:26:14;;;;;;;1.97;1.33;;;;;;;;;;6245584;23;20210;-85
2023/06/16 06:28:43;;;;;;;1.40;1.30;;;;;;;;;;6245906;22;20205;-84
2023/06/16 06:31:11;;;;;;;0.40;0.40;;;;;;;;;;6245106;23;20177;-85
2023/06/16 06:33:40;;;;;;;0.87;0.87;;;;;;;;;;6245063;23;20176;-84
2023/06/16 06:36:09;;;;;;;1.03;1.03;;;;;;;;;;6245675;23;20194;-85
2023/06/16 06:38:38;;;;;;;0.80;0.80;;;;;;;;;;6245445;23;20179;-86
2023/06/16 06:41:06;;;;;;;0.40;0.40;;;;;;;;;;6242438;23;20231;-84
2023/06/16 06:43:36;;;;;;;0.67;0.67;;;;;;;;;;6244504;23;20173;-88
2023/06/16 06:46:04;;;;;;;2.17;0.90;;;;;;;;;;6246452;23;20206;-87
2023/06/16 06:48:33;;;;;;;0.40;0.40;;;;;;;;;;6246572;23;20184;-88
2023/06/16 06:51:02;;;;;;;0.60;0.60;;;;;;;;;;6245273;23;20176;-88
2023/06/16 06:53:31;;;;;;;0.30;0.30;;;;;;;;;;6244450;23;20179;-88
2023/06/16 06:56:00;;;;;;;2.50;1.10;;;;;;;;;;6245179;23;20185;-89
2023/06/16 06:58:28;;;;;;;0.40;0.40;;;;;;;;;;6245089;23;20172;-88
2023/06/16 07:00:58;;;;;;;1.20;1.10;;;;;;;;;;6245624;23;20183;-89
2023/06/16 07:03:27;;;;;;;5.13;3.77;;;;;;;;;;6245476;23;20174;-89
2023/06/16 07:05:56;;;;;;;1.93;1.80;;;;;;;;;;6245612;23;20178;-89
2023/06/16 07:08:25;;;;;;;2.80;1.40;;;;;;;;;;6245190;23;20183;-89
2023/06/16 07:10:53;;;;;;;0.50;0.50;;;;;;;;;;6245260;23;20259;-89
2023/06/16 07:13:25;;;;;;;0.87;0.87;;;;;;;;;;6245237;23;20173;-89
2023/06/16 07:15:54;;;;;;;0.63;0.63;;;;;;;;;;6245141;23;20200;-89
2023/06/16 07:18:24;;;;;;;1.00;1.00;;;;;;;;;;6244888;23;20174;-89
2023/06/16 07:20:53;;;;;;;0.40;0.40;;;;;;;;;;6244738;23;20268;-89
2023/06/16 07:23:21;;;;;;;2.70;1.90;;;;;;;;;;6245179;23;20173;-89
2023/06/16 07:25:50;;;;;;;5.43;1.87;;;;;;;;;;6244114;23;20237;-89
2023/06/16 07:28:18;;;;;;;0.43;0.43;;;;;;;;;;6244985;22;20195;-89
2023/06/16 07:30:47;;;;;;;0.47;0.47;;;;;;;;;;6244694;23;20208;-89
2023/06/16 07:33:16;;;;;;;0.40;0.40;;;;;;;;;;6244929;23;20173;-89
2023/06/16 07:35:46;;;;;;;0.87;0.87;;;;;;;;;;6244874;23;20214;-88
2023/06/16 07:38:15;;;;;;;1.03;0.93;;;;;;;;;;6245218;23;20292;-89
2023/06/16 07:40:43;;;;;;;1.93;1.13;;;;;;;;;;6245292;23;20212;-89
2023/06/16 07:43:12;;;;;;;0.30;0.30;;;;;;;;;;6244450;23;20215;-90
2023/06/16 07:45:40;;;;;;;0.57;0.57;;;;;;;;;;6245005;23;20191;-89
2023/06/16 07:48:10;;;;;;;0.40;0.40;;;;;;;;;;6244364;23;20212;-89
2023/06/16 07:50:39;;;;;;;0.60;0.60;;;;;;;;;;6244331;23;20196;-84
2023/06/16 07:53:09;;;;;;;1.53;0.93;;;;;;;;;;6244437;23;20181;-84
2023/06/16 07:55:38;;;;;;;0.77;0.50;;;;;;;;;;6243977;23;20187;-84
2023/06/16 07:58:09;;;;;;;0.30;0.30;;;;;;;;;;6244352;23;20170;-88
2023/06/16 08:00:37;;;;;;;0.30;0.30;;;;;;;;;;6244323;23;20266;-89
2023/06/16 08:03:06;;;;;;;0.93;0.93;;;;;;;;;;6245157;23;20262;-90
2023/06/16 08:05:35;;;;;;;1.03;0.93;;;;;;;;;;6244741;23;20182;-89
2023/06/16 08:08:04;;;;;;;1.37;1.27;;;;;;;;;;6243488;23;20180;-90
2023/06/16 08:10:33;;;;;;;2.53;0.80;;;;;;;;;;6243951;23;20212;-89
2023/06/16 08:13:02;;;;;;;1.20;1.20;;;;;;;;;;6245434;23;20185;-88
2023/06/16 08:15:30;;;;;;;0.30;0.30;;;;;;;;;;6244434;23;20180;-89
2023/06/16 08:17:59;;;;;;;0.67;0.67;;;;;;;;;;6243824;23;20175;-88
2023/06/16 08:20:29;;;;;;;0.30;0.30;;;;;;;;;;6243863;23;20176;-83
2023/06/16 08:22:57;;;;;;;1.47;1.37;;;;;;;;;;6244788;23;20178;-83
2023/06/16 08:25:26;;;;;;;1.50;1.40;;;;;;;;;;6243591;23;20177;-84
2023/06/16 08:27:55;;;;;;;2.67;2.50;;;;;;;;;;6243871;22;20189;-84
2023/06/16 08:30:24;;;;;;;1.50;1.40;;;;;;;;;;6243778;23;20170;-88
2023/06/16 08:32:53;;;;;;;1.10;1.10;;;;;;;;;;6244154;23;20181;-89
2023/06/16 08:35:21;;;;;;;0.30;0.30;;;;;;;;;;6244150;23;20177;-89
2023/06/16 08:37:50;;;;;;;0.40;0.40;;;;;;;;;;6243827;23;20172;-89
2023/06/16 08:40:18;;;;;;;0.30;0.30;;;;;;;;;;6244285;23;20180;-88
2023/06/16 08:42:49;;;;;;;0.50;0.50;;;;;;;;;;6243547;23;20265;-88
2023/06/16 08:45:20;;;;;;;1.23;1.13;;;;;;;;;;6243961;23;20181;-88
2023/06/16 08:47:49;;;;;;;0.93;0.93;;;;;;;;;;6244167;23;20171;-89
2023/06/16 08:50:22;;;;;;;1.27;1.17;;;;;;;;;;6243789;23;20177;-88
2023/06/16 08:52:51;;;;;;;5.13;2.03;;;;;;;;;;6244164;23;20202;-88
2023/06/16 08:55:19;;;;;;;1.50;1.33;;;;;;;;;;6244082;23;20174;-88
2023/06/16 08:57:48;;;;;;;3.97;2.03;;;;;;;;;;6243328;23;20196;-88
2023/06/16 09:00:17;;;;;;;2.63;2.23;;;;;;;;;;6244292;23;20196;-88
2023/06/16 09:02:49;;;;;;;2.07;1.87;;;;;;;;;;6245954;23;20201;-88
2023/06/16 09:05:19;;;;;;;1.00;0.90;;;;;;;;;;6246237;23;20203;-89
2023/06/16 09:07:49;;;;;;;0.30;0.30;;;;;;;;;;6245593;23;20232;-88
2023/06/16 09:10:18;;;;;;;0.47;0.47;;;;;;;;;;6246540;23;20182;-88
2023/06/16 09:12:53;;;;;;;1.67;1.57;;;;;;;;;;6245789;23;20249;-82
2023/06/16 09:15:24;;;;;;;1.10;0.60;;;;;;;;;;6246146;23;20174;-82
2023/06/16 09:17:56;;;;;;;0.50;0.50;;;;;;;;;;6244516;23;20187;-88
2023/06/16 09:20:25;;;;;;;0.80;0.80;;;;;;;;;;6245502;23;20171;-82
2023/06/16 09:22:59;;;;;;;1.10;1.10;;;;;;;;;;6245376;23;20181;-81
2023/06/16 09:25:28;;;;;;;1.67;1.40;;;;;;;;;;6244626;23;20183;-82
2023/06/16 09:27:56;;;;;;;0.67;0.67;;;;;;;;;;6245054;22;20216;-82
2023/06/16 09:30:31;;;;;;;2.80;2.03;;;;;;;;;;6245101;23;20176;-82
2023/06/16 09:33:01;;;;;;;3.23;1.90;;;;;;;;;;6245236;23;20178;-88
2023/06/16 09:35:31;;;;;;;0.30;0.30;;;;;;;;;;6245330;23;20181;-88
2023/06/16 09:38:00;;;;;;;1.97;1.87;;;;;;;;;;6245407;23;20195;-88
2023/06/16 09:40:29;;;;;;;1.73;1.63;;;;;;;;;;6245986;23;20241;-88
2023/06/16 09:43:01;;;;;;;2.40;2.20;;;;;;;;;;6244709;23;20202;-88
2023/06/16 09:45:31;;;;;;;1.13;1.07;;;;;;;;;;6245783;23;20175;-88
2023/06/16 09:48:05;;;;;;;2.07;1.87;;;;;;;;;;6245607;23;20174;-88
2023/06/16 09:50:37;;;;;;;3.17;1.50;;;;;;;;;;6245584;23;20174;-88
2023/06/16 09:53:08;;;;;;;2.47;1.27;;;;;;;;;;6244633;23;20193;-85
2023/06/16 09:55:38;;;;;;;2.07;1.77;;;;;;;;;;6245720;23;20170;-85
2023/06/16 09:58:07;;;;;;;0.70;0.70;;;;;;;;;;6245322;23;20206;-84
2023/06/16 10:00:36;;;;;;;2.07;0.87;;;;;;;;;;6244810;23;20171;-83
2023/06/16 10:03:08;;;;;;;2.47;1.53;;;;;;;;;;6245420;23;20187;-83
2023/06/16 10:05:39;;;;;;;1.07;1.07;;;;;;;;;;6245394;23;20171;-83
2023/06/16 10:08:08;;;;;;;3.53;2.10;;;;;;;;;;6244944;23;20181;-83
2023/06/16 10:10:38;;;;;;;1.90;1.40;;;;;;;;;;6246087;23;20175;-83
2023/06/16 10:13:07;;;;;;;2.27;1.30;;;;;;;;;;6244754;23;20207;-81
2023/06/16 10:15:37;;;;;;;1.07;1.07;;;;;;;;;;6245432;23;20179;-81
2023/06/16 10:18:08;;;;;;;2.73;1.87;;;;;;;;;;6244789;23;20191;-81
2023/06/16 10:20:40;;;;;;;2.00;1.77;;;;;;;;;;6244938;23;20170;-81
2023/06/16 10:23:10;;;;;;;3.67;1.90;;;;;;;;;;6245037;23;20262;-87
2023/06/16 10:25:40;;;;;;;1.80;1.70;;;;;;;;;;6245640;23;20177;-88
2023/06/16 10:28:13;;;;;;;2.03;1.83;;;;;;;;;;6245568;22;20279;-88
2023/06/16 10:30:43;;;;;;;1.27;1.23;;;;;;;;;;6244651;23;20170;-80
2023/06/16 10:33:22;;;;;;;1.40;1.30;;;;;;;;;;6245377;23;20171;-81
2023/06/16 10:35:51;;;;;;;0.70;0.70;;;;;;;;;;6245154;23;20205;-87
2023/06/16 10:38:35;;;;;;;6.70;1.67;;;;;;;;;;6245082;23;20191;-81
2023/06/16 10:41:06;;;;;;;1.40;1.30;;;;;;;;;;6244599;23;20170;-80
2023/06/16 10:43:34;;;;;;;2.43;1.93;;;;;;;;;;6243883;23;20204;-81
2023/06/16 10:46:13;;;;;;;1.90;1.13;;;;;;;;;;6244185;23;20175;-80
2023/06/16 10:48:59;;;;;;;0.70;0.70;;;;;;;;;;6244902;23;20169;-80
2023/06/16 10:51:48;;;;;;;0.77;0.77;;;;;;;;;;6244814;23;20184;-82
2023/06/16 10:54:18;;;;;;;2.47;1.43;;;;;;;;;;6244253;23;20231;-82
2023/06/16 10:57:02;;;;;;;1.90;1.77;;;;;;;;;;6245124;23;20188;-81
2023/06/16 10:59:53;;;;;;;1.13;1.07;;;;;;;;;;6245011;23;20179;-88
2023/06/16 11:02:25;;;;;;;1.73;1.63;;;;;;;;;;6245085;23;20183;-88
2023/06/16 11:05:14;;;;;;;1.97;1.77;;;;;;;;;;6245039;23;20187;-88
2023/06/16 11:07:43;;;;;;;1.40;1.10;;;;;;;;;;6245443;23;20180;-88
2023/06/16 11:10:17;;;;;;;0.60;0.60;;;;;;;;;;6245064;23;20175;-82
2023/06/16 11:12:47;;;;;;;1.20;1.10;;;;;;;;;;6244850;23;20208;-83
2023/06/16 11:15:15;;;;;;;1.33;1.27;;;;;;;;;;6244917;23;20181;-83
2023/06/16 11:17:44;;;;;;;1.33;1.23;;;;;;;;;;6244025;23;20275;-82
2023/06/16 11:20:15;;;;;;;1.67;1.57;;;;;;;;;;6244901;23;20267;-82
2023/06/16 11:22:44;;;;;;;2.40;1.70;;;;;;;;;;6244333;23;20175;-83
2023/06/16 11:25:14;;;;;;;1.27;1.17;;;;;;;;;;6244451;23;20172;-83
2023/06/16 11:27:43;;;;;;;1.70;1.60;;;;;;;;;;6244110;22;20185;-83
2023/06/16 11:30:12;;;;;;;1.87;1.73;;;;;;;;;;6245007;23;20179;-82
2023/06/16 11:32:40;;;;;;;2.27;1.93;;;;;;;;;;6245009;23;20207;-83
2023/06/16 11:35:10;;;;;;;1.20;1.10;;;;;;;;;;6244771;23;20188;-83
2023/06/16 11:37:47;;;;;;;8.97;0.90;;;;;;;;;;6244913;23;20194;-82
2023/06/16 11:40:21;;;;;;;2.17;1.50;;;;;;;;;;6244938;23;20180;-83
2023/06/16 11:42:54;;;;;;;3.10;1.33;;;;;;;;;;6243913;23;20250;-82
2023/06/16 11:45:23;;;;;;;2.03;1.93;;;;;;;;;;6244443;23;20180;-82
2023/06/16 11:47:51;;;;;;;2.30;1.67;;;;;;;;;;6245036;23;20294;-83
2023/06/16 11:50:20;;;;;;;1.10;1.10;;;;;;;;;;6244379;23;20175;-83
2023/06/16 11:52:51;;;;;;;3.47;2.10;;;;;;;;;;6244253;23;20181;-81
2023/06/16 11:55:20;;;;;;;1.17;1.17;;;;;;;;;;6244840;23;20191;-81
2023/06/16 11:57:49;;;;;;;1.70;1.20;;;;;;;;;;6243461;23;20199;-83
2023/06/16 12:00:18;;;;;;;1.53;1.43;;;;;;;;;;6243934;23;20223;-82
2023/06/16 12:02:48;;;;;;;1.27;1.10;;;;;;;;;;6244392;23;20205;-89
2023/06/16 12:05:22;;;;;;;1.13;1.13;;;;;;;;;;6244162;23;20208;-89
2023/06/16 12:07:52;;;;;;;2.03;1.93;;;;;;;;;;6244100;23;20194;-84
2023/06/16 12:10:24;;;;;;;1.27;1.17;;;;;;;;;;6243788;23;20187;-85
2023/06/16 12:12:52;;;;;;;1.50;1.40;;;;;;;;;;6244399;23;20166;-82
2023/06/16 12:15:21;;;;;;;0.80;0.80;;;;;;;;;;6244302;23;20174;-84
2023/06/16 12:17:50;;;;;;;1.70;1.53;;;;;;;;;;6243744;23;20192;-84
2023/06/16 12:20:19;;;;;;;2.80;1.30;;;;;;;;;;6243914;23;20180;-84
2023/06/16 12:22:49;;;;;;;1.10;1.10;;;;;;;;;;6243929;23;20195;-84
2023/06/16 12:25:19;;;;;;;4.60;1.60;;;;;;;;;;6244177;23;20182;-89
2023/06/16 12:27:49;;;;;;;1.37;1.27;;;;;;;;;;6244304;22;20193;-90
2023/06/16 12:30:18;;;;;;;6.80;1.53;;;;;;;;;;6245058;23;20176;-90
2023/06/16 12:32:50;;;;;;;1.50;1.40;;;;;;;;;;6244834;23;20214;-90
2023/06/16 12:35:25;;;;;;;3.70;2.37;;;;;;;;;;6244767;23;20181;-84
2023/06/16 12:38:00;;;;;;;1.70;1.60;;;;;;;;;;6245867;23;20215;-85
2023/06/16 12:40:31;;;;;;;1.13;1.03;;;;;;;;;;6246224;23;20175;-85
2023/06/16 12:43:17;;;;;;;1.90;1.60;;;;;;;;;;6245412;23;20210;-85
2023/06/16 12:45:46;;;;;;;0.93;0.83;;;;;;;;;;6245334;23;20249;-84
2023/06/16 12:48:14;;;;;;;2.57;1.67;;;;;;;;;;6245737;23;20175;-84
2023/06/16 12:50:43;;;;;;;2.07;1.70;;;;;;;;;;6245817;23;20176;-85
2023/06/16 12:53:12;;;;;;;1.13;1.03;;;;;;;;;;6245396;23;20177;-85
2023/06/16 12:55:42;;;;;;;1.53;1.40;;;;;;;;;;6245752;23;20207;-85
2023/06/16 12:58:10;;;;;;;2.30;1.47;;;;;;;;;;6245927;23;20248;-83
2023/06/16 13:00:39;;;;;;;1.97;1.77;;;;;;;;;;6245529;23;20255;-84
2023/06/16 13:03:08;;;;;;;2.93;2.03;;;;;;;;;;6246319;23;20176;-84
2023/06/16 13:05:39;;;;;;;2.73;2.53;;;;;;;;;;6246327;23;20176;-84
2023/06/16 13:08:11;;;;;;;1.70;1.53;;;;;;;;;;6245489;23;20209;-85
2023/06/16 13:10:40;;;;;;;2.73;1.70;;;;;;;;;;6245172;23;20168;-85
2023/06/16 13:13:14;;;;;;;0.90;0.90;;;;;;;;;;6245778;23;20199;-85
2023/06/16 13:15:43;;;;;;;0.97;0.97;;;;;;;;;;6245662;23;20175;-84
2023/06/16 13:18:12;;;;;;;7.70;4.77;;;;;;;;;;6245399;23;20173;-84
2023/06/16 13:20:40;;;;;;;1.47;1.37;;;;;;;;;;6245890;23;20192;-85
2023/06/16 13:23:10;;;;;;;1.50;1.33;;;;;;;;;;6245806;23;20224;-84
2023/06/16 13:25:38;;;;;;;2.33;1.90;;;;;;;;;;6246059;23;20177;-84
2023/06/16 13:28:06;;;;;;;1.47;1.33;;;;;;;;;;6245174;22;20195;-89
2023/06/16 13:30:36;;;;;;;2.23;1.83;;;;;;;;;;6246486;23;20171;-89
2023/06/16 13:33:05;;;;;;;1.60;1.47;;;;;;;;;;6246266;23;20177;-89
2023/06/16 13:35:36;;;;;;;4.57;2.20;;;;;;;;;;6246085;23;20177;-89
2023/06/16 13:38:04;;;;;;;1.80;1.70;;;;;;;;;;6246123;23;20188;-89
2023/06/16 13:40:36;;;;;;;1.83;1.70;;;;;;;;;;6246294;23;20234;-89
2023/06/16 13:43:05;;;;;;;1.27;1.20;;;;;;;;;;6245803;23;20273;-89
2023/06/16 13:45:34;;;;;;;1.10;1.10;;;;;;;;;;6245395;23;20204;-90
2023/06/16 13:48:04;;;;;;;2.03;1.60;;;;;;;;;;6245621;23;20176;-89
2023/06/16 13:50:36;;;;;;;2.03;1.33;;;;;;;;;;6246291;23;20172;-89
2023/06/16 13:53:06;;;;;;;0.97;0.93;;;;;;;;;;6245582;23;20180;-84
2023/06/16 13:55:35;;;;;;;2.03;1.70;;;;;;;;;;6244825;23;20173;-85
2023/06/16 13:58:03;;;;;;;1.10;1.10;;;;;;;;;;6245237;23;20175;-84
2023/06/16 14:00:32;;;;;;;1.37;1.37;;;;;;;;;;6245469;23;20200;-84
2023/06/16 14:03:01;;;;;;;1.90;1.80;;;;;;;;;;6244895;23;20185;-84
2023/06/16 14:05:31;;;;;;;2.20;1.67;;;;;;;;;;6245335;23;20218;-84
2023/06/16 14:08:01;;;;;;;2.37;2.00;;;;;;;;;;6245749;23;20207;-84
2023/06/16 14:10:29;;;;;;;1.20;1.20;;;;;;;;;;6245039;23;20173;-85
2023/06/16 14:12:58;;;;;;;2.13;2.00;;;;;;;;;;6244996;23;20179;-84
2023/06/16 14:15:28;;;;;;;1.47;1.37;;;;;;;;;;6245527;23;20199;-84
2023/06/16 14:17:56;;;;;;;2.67;2.47;;;;;;;;;;6244364;23;20181;-84
2023/06/16 14:20:25;;;;;;;2.20;1.70;;;;;;;;;;6244736;23;20283;-85
2023/06/16 14:22:56;;;;;;;11.17;1.97;;;;;;;;;;6244964;23;20231;-85
2023/06/16 14:25:25;;;;;;;2.37;1.90;;;;;;;;;;6245041;23;20258;-85
2023/06/16 14:27:53;;;;;;;3.40;2.77;;;;;;;;;;6245201;22;20246;-90
2023/06/16 14:30:25;;;;;;;9.30;1.40;;;;;;;;;;6245793;23;20165;-89
2023/06/16 14:32:53;;;;;;;1.67;1.57;;;;;;;;;;6245760;23;20223;-89
2023/06/16 14:35:23;;;;;;;1.70;1.60;;;;;;;;;;6246711;23;20175;-89
2023/06/16 14:37:52;;;;;;;9.50;7.83;;;;;;;;;;6244952;23;20203;-89
2023/06/16 14:40:24;;;;;;;2.50;2.07;;;;;;;;;;6246099;23;20239;-89
2023/06/16 14:42:53;;;;;;;7.90;6.87;;;;;;;;;;6245385;23;20208;-89
2023/06/16 14:45:24;;;;;;;2.40;1.50;;;;;;;;;;6245431;23;20208;-89
2023/06/16 14:47:52;;;;;;;1.23;1.13;;;;;;;;;;6245125;23;20267;-89
2023/06/16 14:50:22;;;;;;;1.90;1.80;;;;;;;;;;6245688;23;20180;-89
2023/06/16 14:52:51;;;;;;;2.20;2.00;;;;;;;;;;6245201;23;20181;-89
2023/06/16 14:55:21;;;;;;;3.23;2.93;;;;;;;;;;6245381;23;20182;-89
2023/06/16 14:57:53;;;;;;;1.30;1.30;;;;;;;;;;6245189;23;20181;-89
2023/06/16 15:00:25;;;;;;;1.60;1.17;;;;;;;;;;6245324;23;20205;-88